createdAt,value
2023-03-14T00:00:12.077Z,1.63
2023-03-14T00:02:41.429Z,1.10
2023-03-14T00:05:11.534Z,1.60
2023-03-14T00:07:41.859Z,2.03
2023-03-14T00:10:15.197Z,1.87
2023-03-14T00:12:44.186Z,1.67
2023-03-14T00:15:13.943Z,1.50
2023-03-14T00:17:45.085Z,1.30
2023-03-14T00:20:14.871Z,2.00
2023-03-14T00:22:44.110Z,5.20
2023-03-14T00:25:14.309Z,1.30
2023-03-14T00:27:42.634Z,1.40
2023-03-14T00:30:12.249Z,2.43
2023-03-14T00:32:40.690Z,1.80
2023-03-14T00:35:09.699Z,1.47
2023-03-14T00:37:38.280Z,1.63
2023-03-14T00:40:08.825Z,1.63
2023-03-14T00:42:38.492Z,2.33
2023-03-14T00:45:09.022Z,1.30
2023-03-14T00:47:37.289Z,1.90
2023-03-14T00:50:06.511Z,2.20
2023-03-14T00:52:34.910Z,3.60
2023-03-14T00:55:03.382Z,1.20
2023-03-14T00:57:32.162Z,3.57
2023-03-14T01:00:02.022Z,1.50
2023-03-14T01:02:31.227Z,1.00
2023-03-14T01:04:59.746Z,2.27
2023-03-14T01:07:28.182Z,1.67
2023-03-14T01:09:56.972Z,2.97
2023-03-14T01:12:25.342Z,1.70
2023-03-14T01:14:53.756Z,2.53
2023-03-14T01:17:23.591Z,1.60
2023-03-14T01:19:52.067Z,1.70
2023-03-14T01:22:22.490Z,1.50
2023-03-14T01:24:50.769Z,7.33
2023-03-14T01:27:19.045Z,1.63
2023-03-14T01:29:48.309Z,1.50
2023-03-14T01:32:16.671Z,2.00
2023-03-14T01:34:46.567Z,2.43
2023-03-14T01:37:14.947Z,1.23
2023-03-14T01:39:43.192Z,1.40
2023-03-14T01:42:12.035Z,1.47
2023-03-14T01:44:52.771Z,2.17
2023-03-14T01:47:21.805Z,1.40
2023-03-14T01:49:56.027Z,1.03
2023-03-14T01:52:29.881Z,2.57
2023-03-14T01:55:02.390Z,1.80
2023-03-14T01:57:34.762Z,1.83
2023-03-14T02:00:12.641Z,1.43
2023-03-14T02:02:44.245Z,2.80
2023-03-14T02:05:18.248Z,1.47
2023-03-14T02:07:52.175Z,1.30
2023-03-14T02:10:24.856Z,2.43
2023-03-14T02:12:55.715Z,1.33
2023-03-14T02:15:24.776Z,1.50
2023-03-14T02:17:54.410Z,1.70
2023-03-14T02:20:36.448Z,1.10
2023-03-14T02:23:05.023Z,1.63
2023-03-14T02:25:42.859Z,2.03
2023-03-14T02:28:14.068Z,1.27
2023-03-14T02:30:42.988Z,1.07
2023-03-14T02:33:14.583Z,3.23
2023-03-14T02:35:46.025Z,2.23
2023-03-14T02:38:21.972Z,1.37
2023-03-14T02:40:50.576Z,1.70
2023-03-14T02:43:20.484Z,1.73
2023-03-14T02:45:50.081Z,2.13
2023-03-14T02:48:20.622Z,1.50
2023-03-14T02:50:51.298Z,1.50
2023-03-14T02:53:23.744Z,1.20
2023-03-14T02:55:52.642Z,1.23
2023-03-14T02:58:22.393Z,2.03
2023-03-14T03:00:50.746Z,1.20
2023-03-14T03:03:19.245Z,1.90
2023-03-14T03:05:52.641Z,1.40
2023-03-14T03:08:22.230Z,1.43
2023-03-14T03:10:50.630Z,1.43
2023-03-14T03:13:19.956Z,1.00
2023-03-14T03:15:49.845Z,3.43
2023-03-14T03:18:18.315Z,1.00
2023-03-14T03:20:46.735Z,1.30
2023-03-14T03:23:15.269Z,1.50
2023-03-14T03:25:43.902Z,3.20
2023-03-14T03:28:12.745Z,3.20
2023-03-14T03:30:41.566Z,2.33
2023-03-14T03:33:12.524Z,1.30
2023-03-14T03:35:48.347Z,2.17
2023-03-14T03:38:17.641Z,1.30
2023-03-14T03:40:46.235Z,2.17
2023-03-14T03:43:14.564Z,0.90
2023-03-14T03:45:42.917Z,2.07
2023-03-14T03:48:12.623Z,1.27
2023-03-14T03:50:47.215Z,1.87
2023-03-14T03:53:26.936Z,1.17
2023-03-14T03:56:00.968Z,1.17
2023-03-14T03:58:29.319Z,1.20
2023-03-14T04:00:57.854Z,0.93
2023-03-14T04:03:28.140Z,2.23
2023-03-14T04:06:04.402Z,1.20
2023-03-14T04:08:33.283Z,1.20
2023-03-14T04:11:03.143Z,1.20
2023-03-14T04:13:31.575Z,1.10
2023-03-14T04:16:00.304Z,2.57
2023-03-14T04:18:31.357Z,1.30
2023-03-14T04:21:00.508Z,1.27
2023-03-14T04:23:28.829Z,2.63
2023-03-14T04:25:57.131Z,1.27
2023-03-14T04:28:25.458Z,1.17
2023-03-14T04:30:53.796Z,1.20
2023-03-14T04:33:22.222Z,1.33
2023-03-14T04:35:55.232Z,0.93
2023-03-14T04:38:23.651Z,1.03
2023-03-14T04:40:52.372Z,1.17
2023-03-14T04:43:20.690Z,1.20
2023-03-14T04:45:49.032Z,1.33
2023-03-14T04:48:17.344Z,1.43
2023-03-14T04:50:47.524Z,1.77
2023-03-14T04:53:17.562Z,1.10
2023-03-14T04:55:51.486Z,1.37
2023-03-14T04:58:20.381Z,2.67
2023-03-14T05:00:50.133Z,1.77
2023-03-14T05:03:19.584Z,2.33
2023-03-14T05:05:48.972Z,1.00
2023-03-14T05:08:19.061Z,1.53
2023-03-14T05:10:53.681Z,1.30
2023-03-14T05:13:22.289Z,1.67
2023-03-14T05:15:51.709Z,1.23
2023-03-14T05:18:20.358Z,1.50
2023-03-14T05:20:48.920Z,1.10
2023-03-14T05:23:18.866Z,1.20
2023-03-14T05:25:47.320Z,1.30
2023-03-14T05:28:15.961Z,1.53
2023-03-14T05:30:44.480Z,3.00
2023-03-14T05:33:12.968Z,1.37
2023-03-14T05:35:41.694Z,1.40
2023-03-14T05:38:10.261Z,1.67
2023-03-14T05:40:40.267Z,1.27
2023-03-14T05:43:09.219Z,1.13
2023-03-14T05:45:38.012Z,2.23
2023-03-14T05:48:07.138Z,1.50
2023-03-14T05:50:35.751Z,2.00
2023-03-14T05:53:04.329Z,1.97
2023-03-14T05:55:33.340Z,1.80
2023-03-14T05:58:03.422Z,2.87
2023-03-14T06:00:32.230Z,1.50
2023-03-14T06:03:00.812Z,2.70
2023-03-14T06:05:29.583Z,1.80
2023-03-14T06:07:58.218Z,3.50
2023-03-14T06:10:26.730Z,1.87
2023-03-14T06:12:55.586Z,1.97
2023-03-14T06:15:25.760Z,4.00
2023-03-14T06:17:55.935Z,2.60
2023-03-14T06:20:24.858Z,3.27
2023-03-14T06:22:53.567Z,3.37
2023-03-14T06:25:22.415Z,1.47
2023-03-14T06:27:51.096Z,1.70
2023-03-14T06:30:20.119Z,1.60
2023-03-14T06:32:50.157Z,1.80
2023-03-14T06:35:19.171Z,1.00
2023-03-14T06:37:48.051Z,2.00
2023-03-14T06:40:19.015Z,2.30
2023-03-14T06:42:47.708Z,1.97
2023-03-14T06:45:16.966Z,1.10
2023-03-14T06:47:45.571Z,1.63
2023-03-14T06:50:15.819Z,2.80
2023-03-14T06:52:49.012Z,3.73
2023-03-14T06:55:20.063Z,3.57
2023-03-14T06:57:50.204Z,3.93
2023-03-14T07:00:19.924Z,4.13
2023-03-14T07:02:48.613Z,2.67
2023-03-14T07:05:18.783Z,2.90
2023-03-14T07:07:47.572Z,3.07
2023-03-14T07:10:16.388Z,3.83
2023-03-14T07:12:45.249Z,4.10
2023-03-14T07:18:02.118Z,1.77
2023-03-14T07:20:33.333Z,2.50
2023-03-14T07:23:03.914Z,2.50
2023-03-14T07:25:32.028Z,3.97
2023-03-14T07:28:00.126Z,3.67
2023-03-14T07:30:28.363Z,4.10
2023-03-14T07:32:56.594Z,4.93
2023-03-14T07:35:24.818Z,4.33
2023-03-14T07:37:54.290Z,2.93
2023-03-14T07:40:23.717Z,5.40
2023-03-14T07:42:52.351Z,18.63
2023-03-14T07:45:20.534Z,4.63
2023-03-14T07:47:48.716Z,18.97
2023-03-14T07:50:16.901Z,4.83
2023-03-14T07:52:45.055Z,3.73
2023-03-14T07:55:14.723Z,6.00
2023-03-14T07:57:43.003Z,3.07
2023-03-14T08:00:14.795Z,2.33
2023-03-14T08:02:44.093Z,3.13
2023-03-14T08:05:12.668Z,8.40
2023-03-14T08:07:40.851Z,5.80
2023-03-14T08:10:10.594Z,7.87
2023-03-14T08:12:40.113Z,3.83
2023-03-14T08:15:09.287Z,3.57
2023-03-14T08:17:37.415Z,3.60
2023-03-14T08:20:09.146Z,3.43
2023-03-14T08:22:37.466Z,2.40
2023-03-14T08:25:06.498Z,2.43
2023-03-14T08:27:34.615Z,5.00
2023-03-14T08:30:05.227Z,6.87
2023-03-14T08:32:33.439Z,4.10
2023-03-14T08:35:01.608Z,3.37
2023-03-14T08:37:29.769Z,2.93
2023-03-14T08:39:57.923Z,3.10
2023-03-14T08:42:26.430Z,3.10
2023-03-14T08:44:55.121Z,3.30
2023-03-14T08:47:24.648Z,3.40
2023-03-14T08:49:52.871Z,3.10
2023-03-14T08:52:21.075Z,4.93
2023-03-14T08:54:49.501Z,3.13
2023-03-14T08:57:17.761Z,4.43
2023-03-14T08:59:45.973Z,6.97
2023-03-14T09:02:14.568Z,3.63
2023-03-14T09:04:44.080Z,4.53
2023-03-14T09:07:12.224Z,4.40
2023-03-14T09:09:40.561Z,3.17
2023-03-14T09:12:08.931Z,5.17
2023-03-14T09:14:37.235Z,2.97
2023-03-14T09:17:05.910Z,4.10
2023-03-14T09:19:34.015Z,3.73
2023-03-14T09:22:03.706Z,2.23
2023-03-14T09:24:32.197Z,3.33
2023-03-14T09:27:00.395Z,4.00
2023-03-14T09:29:28.599Z,2.90
2023-03-14T09:31:58.308Z,5.63
2023-03-14T09:34:26.609Z,4.07
2023-03-14T09:36:54.892Z,4.10
2023-03-14T09:39:24.427Z,3.43
2023-03-14T09:41:55.656Z,4.47
2023-03-14T09:44:27.748Z,7.33
2023-03-14T09:46:59.610Z,5.43
2023-03-14T09:49:32.554Z,4.33
2023-03-14T09:52:04.314Z,5.53
2023-03-14T09:54:38.131Z,6.07
2023-03-14T09:57:08.145Z,6.90
2023-03-14T09:59:38.335Z,4.53
2023-03-14T10:02:17.251Z,5.23
2023-03-14T10:04:48.027Z,5.17
2023-03-14T10:07:20.561Z,4.00
2023-03-14T10:09:52.692Z,3.67
2023-03-14T10:12:22.086Z,8.10
2023-03-14T10:14:52.675Z,5.10
2023-03-14T10:17:22.494Z,2.87
2023-03-14T10:19:55.644Z,3.97
2023-03-14T10:22:26.527Z,3.03
2023-03-14T10:25:00.193Z,2.40
2023-03-14T10:27:32.066Z,2.37
2023-03-14T10:30:02.315Z,4.03
2023-03-14T10:32:35.084Z,2.80
2023-03-14T10:35:11.112Z,4.40
2023-03-14T10:37:52.202Z,5.37
2023-03-14T10:40:26.392Z,4.73
2023-03-14T10:42:56.330Z,2.07
2023-03-14T10:45:35.139Z,3.30
2023-03-14T10:48:20.362Z,2.30
2023-03-14T10:50:57.758Z,1.87
2023-03-14T10:53:27.752Z,3.23
2023-03-14T10:55:59.292Z,3.00
2023-03-14T10:58:31.701Z,1.77
2023-03-14T11:01:11.467Z,3.73
2023-03-14T11:03:43.226Z,2.87
2023-03-14T11:06:16.747Z,1.17
2023-03-14T11:08:51.431Z,2.80
2023-03-14T11:11:24.613Z,1.50
2023-03-14T11:14:11.033Z,2.00
2023-03-14T11:16:53.673Z,3.17
2023-03-14T11:20:01.263Z,1.73
2023-03-14T11:22:38.438Z,2.20
2023-03-14T11:25:24.015Z,2.03
2023-03-14T11:28:02.986Z,1.53
2023-03-14T11:30:39.128Z,1.47
2023-03-14T11:33:13.555Z,4.30
2023-03-14T11:35:49.303Z,1.50
2023-03-14T11:38:30.487Z,4.63
2023-03-14T11:41:01.052Z,1.27
2023-03-14T11:43:35.962Z,3.40
2023-03-14T11:46:12.565Z,4.97
2023-03-14T11:48:46.853Z,2.17
2023-03-14T11:51:22.433Z,2.20
2023-03-14T11:54:00.744Z,3.27
2023-03-14T11:56:35.311Z,9.77
2023-03-14T11:59:11.537Z,4.87
2023-03-14T12:01:53.405Z,2.90
2023-03-14T12:04:33.049Z,3.47
2023-03-14T12:07:05.232Z,1.97
2023-03-14T12:09:34.125Z,4.27
2023-03-14T12:12:07.472Z,6.73
2023-03-14T12:14:38.879Z,3.53
2023-03-14T12:17:19.692Z,2.00
2023-03-14T12:19:49.134Z,2.80
2023-03-14T12:22:29.546Z,3.70
2023-03-14T12:25:02.819Z,3.23
2023-03-14T12:28:15.378Z,2.33
2023-03-14T12:30:44.980Z,3.20
2023-03-14T12:33:31.765Z,1.33
2023-03-14T12:36:03.358Z,2.83
2023-03-14T12:38:45.409Z,2.63
2023-03-14T12:41:19.711Z,2.23
2023-03-14T12:43:48.710Z,2.60
2023-03-14T12:46:27.282Z,1.87
2023-03-14T12:49:06.769Z,3.00
2023-03-14T12:51:38.779Z,3.40
2023-03-14T12:54:39.956Z,2.83
2023-03-14T12:57:30.098Z,2.13
2023-03-14T13:00:00.197Z,2.20
2023-03-14T13:02:31.589Z,1.13
2023-03-14T13:05:07.175Z,1.90
2023-03-14T13:08:06.260Z,1.60
2023-03-14T13:10:44.267Z,2.57
2023-03-14T13:13:21.176Z,3.40
2023-03-14T13:15:52.326Z,1.43
2023-03-14T13:18:32.054Z,0.93
2023-03-14T13:21:04.715Z,2.30
2023-03-14T13:23:35.199Z,1.10
2023-03-14T13:26:04.512Z,1.70
2023-03-14T13:28:34.140Z,1.53
2023-03-14T13:31:07.395Z,1.70
2023-03-14T13:33:42.815Z,4.83
2023-03-14T13:36:12.426Z,3.10
2023-03-14T13:38:40.672Z,4.70
2023-03-14T13:41:10.091Z,3.43
2023-03-14T13:43:42.224Z,3.30
2023-03-14T13:46:16.338Z,2.37
2023-03-14T13:48:48.573Z,2.87
2023-03-14T13:51:20.196Z,1.57
2023-03-14T13:53:50.090Z,1.90
2023-03-14T13:56:19.531Z,1.93
2023-03-14T13:58:48.229Z,2.97
2023-03-14T14:01:19.939Z,2.50
2023-03-14T14:03:52.692Z,10.57
2023-03-14T14:06:33.086Z,6.63
2023-03-14T14:09:04.429Z,1.50
2023-03-14T14:11:50.576Z,0.87
2023-03-14T14:14:30.915Z,1.03
2023-03-14T14:17:01.447Z,1.80
2023-03-14T14:19:34.895Z,1.70
2023-03-14T14:22:04.028Z,1.20
2023-03-14T14:24:34.627Z,1.30
2023-03-14T14:27:04.193Z,2.17
2023-03-14T14:29:34.139Z,2.70
2023-03-14T14:32:05.138Z,1.00
2023-03-14T14:34:42.047Z,5.90
2023-03-14T14:37:26.317Z,1.20
2023-03-14T14:39:58.644Z,1.93
2023-03-14T14:42:30.054Z,5.30
2023-03-14T14:44:59.737Z,1.17
2023-03-14T14:47:30.508Z,1.20
2023-03-14T14:50:03.170Z,1.00
2023-03-14T14:52:40.412Z,0.90
2023-03-14T14:55:20.198Z,0.90
2023-03-14T14:57:53.222Z,1.20
2023-03-14T15:00:26.929Z,0.90
2023-03-14T15:02:57.176Z,1.03
2023-03-14T15:05:28.655Z,0.73
2023-03-14T15:07:57.089Z,1.60
2023-03-14T15:10:27.394Z,2.87
2023-03-14T15:12:55.929Z,1.20
2023-03-14T15:15:24.131Z,3.50
2023-03-14T15:17:52.522Z,1.07
2023-03-14T15:20:24.462Z,2.20
2023-03-14T15:22:54.658Z,2.50
2023-03-14T15:25:47.468Z,1.20
2023-03-14T15:28:18.527Z,0.70
2023-03-14T15:30:46.734Z,0.50
2023-03-14T15:33:14.935Z,0.63
2023-03-14T15:35:43.751Z,1.93
2023-03-14T15:38:14.920Z,0.67
2023-03-14T15:40:43.557Z,1.00
2023-03-14T15:43:11.846Z,1.87
2023-03-14T15:45:41.372Z,1.33
2023-03-14T15:48:16.269Z,0.93
2023-03-14T15:50:44.784Z,0.73
2023-03-14T15:53:15.200Z,0.60
2023-03-14T15:55:43.439Z,1.00
2023-03-14T15:58:21.308Z,1.07
2023-03-14T16:00:50.568Z,1.23
2023-03-14T16:03:19.347Z,1.10
2023-03-14T16:05:47.713Z,2.47
2023-03-14T16:08:17.726Z,1.03
2023-03-14T16:10:46.972Z,1.63
2023-03-14T16:13:15.572Z,2.87
2023-03-14T16:15:44.180Z,0.70
2023-03-14T16:18:21.490Z,1.03
2023-03-14T16:20:58.293Z,0.60
2023-03-14T16:23:29.244Z,0.60
2023-03-14T16:25:58.437Z,1.13
2023-03-14T16:28:27.849Z,1.00
2023-03-14T16:31:02.661Z,2.87
2023-03-14T16:33:31.524Z,2.33
2023-03-14T16:36:02.215Z,1.30
2023-03-14T16:38:34.008Z,1.77
2023-03-14T16:41:04.098Z,0.97
2023-03-14T16:43:34.058Z,1.10
2023-03-14T16:46:03.001Z,1.73
2023-03-14T16:48:31.881Z,2.37
2023-03-14T16:51:00.351Z,1.50
2023-03-14T16:53:30.283Z,1.83
2023-03-14T16:56:00.892Z,1.77
2023-03-14T16:58:30.947Z,2.87
2023-03-14T17:01:00.534Z,4.23
2023-03-14T17:03:29.081Z,3.17
2023-03-14T17:05:57.669Z,3.30
2023-03-14T17:08:26.201Z,4.03
2023-03-14T17:10:54.554Z,11.80
2023-03-14T17:13:26.053Z,5.60
2023-03-14T17:15:56.015Z,5.90
2023-03-14T17:18:25.036Z,4.50
2023-03-14T17:20:54.180Z,8.23
2023-03-14T17:23:22.873Z,8.17
2023-03-14T17:25:51.952Z,7.57
2023-03-14T17:28:22.176Z,6.70
2023-03-14T17:30:52.166Z,7.57
2023-03-14T17:33:20.633Z,6.47
2023-03-14T17:35:49.181Z,6.23
2023-03-14T17:38:17.681Z,8.83
2023-03-14T17:40:49.042Z,6.77
2023-03-14T17:43:17.611Z,6.60
2023-03-14T17:45:46.380Z,4.93
2023-03-14T17:48:16.567Z,6.60
2023-03-14T17:50:45.266Z,5.00
2023-03-14T17:53:13.849Z,7.73
2023-03-14T17:55:43.561Z,10.80
2023-03-14T17:58:12.769Z,12.63
2023-03-14T18:00:41.142Z,6.70
2023-03-14T18:03:09.561Z,9.87
2023-03-14T18:05:42.181Z,8.03
2023-03-14T18:08:15.425Z,8.80
2023-03-14T18:10:44.215Z,6.00
2023-03-14T18:13:13.152Z,9.60
2023-03-14T18:15:41.618Z,6.10
2023-03-14T18:18:10.079Z,12.67
2023-03-14T18:20:38.509Z,13.60
2023-03-14T18:23:09.275Z,11.20
2023-03-14T18:25:37.555Z,11.33
2023-03-14T18:28:06.162Z,8.60
2023-03-14T18:30:34.576Z,12.03
2023-03-14T18:33:03.097Z,12.20
2023-03-14T18:35:31.521Z,7.17
2023-03-14T18:37:59.993Z,7.23
2023-03-14T18:40:29.968Z,13.60
2023-03-14T18:42:58.384Z,14.07
2023-03-14T18:45:26.814Z,11.40
2023-03-14T18:47:55.222Z,6.07
2023-03-14T18:50:23.633Z,10.73
2023-03-14T18:52:51.997Z,12.53
2023-03-14T18:55:20.455Z,6.40
2023-03-14T18:57:50.245Z,14.53
2023-03-14T19:00:20.384Z,14.27
2023-03-14T19:02:49.198Z,68.43
2023-03-14T19:05:17.740Z,30.47
2023-03-14T19:07:46.082Z,11.77
2023-03-14T19:10:14.524Z,13.37
2023-03-14T19:12:43.018Z,13.87
2023-03-14T19:15:13.281Z,24.17
2023-03-14T19:17:41.592Z,14.00
2023-03-14T19:20:11.528Z,12.67
2023-03-14T19:22:39.968Z,15.10
2023-03-14T19:25:10.481Z,20.80
2023-03-14T19:27:39.052Z,15.40
2023-03-14T19:30:08.724Z,19.80
2023-03-14T19:32:38.617Z,21.77
2023-03-14T19:35:07.762Z,20.70
2023-03-14T19:37:36.191Z,17.37
2023-03-14T19:40:07.132Z,15.30
2023-03-14T19:42:35.586Z,18.60
2023-03-14T19:45:03.958Z,24.43
2023-03-14T19:47:33.109Z,23.17
2023-03-14T19:50:02.912Z,20.90
2023-03-14T19:52:31.382Z,10.53
2023-03-14T19:55:01.584Z,18.03
2023-03-14T19:57:29.901Z,13.63
2023-03-14T19:59:59.441Z,18.57
2023-03-14T20:02:29.534Z,13.10
2023-03-14T20:04:58.059Z,14.47
2023-03-14T20:07:28.137Z,24.57
2023-03-14T20:09:56.450Z,21.70
2023-03-14T20:12:24.809Z,16.40
2023-03-14T20:14:53.256Z,11.80
2023-03-14T20:17:21.717Z,22.77
2023-03-14T20:19:50.268Z,22.83
2023-03-14T20:22:18.695Z,13.53
2023-03-14T20:24:49.061Z,22.10
2023-03-14T20:27:17.396Z,19.80
2023-03-14T20:29:45.810Z,11.10
2023-03-14T20:32:14.205Z,10.33
2023-03-14T20:34:42.924Z,18.37
2023-03-14T20:37:13.590Z,10.27
2023-03-14T20:39:41.801Z,16.20
2023-03-14T20:42:11.501Z,18.00
2023-03-14T20:44:40.010Z,23.93
2023-03-14T20:47:08.264Z,18.23
2023-03-14T20:49:36.905Z,15.93
2023-03-14T20:52:05.564Z,16.20
2023-03-14T20:54:34.315Z,15.93
2023-03-14T20:57:02.613Z,13.77
2023-03-14T20:59:32.450Z,14.83
2023-03-14T21:02:00.930Z,14.60
2023-03-14T21:04:29.488Z,12.07
2023-03-14T21:06:57.825Z,13.53
2023-03-14T21:09:28.219Z,18.93
2023-03-14T21:11:56.818Z,15.50
2023-03-14T21:14:25.272Z,12.27
2023-03-14T21:16:55.751Z,17.73
2023-03-14T21:19:30.276Z,16.07
2023-03-14T21:21:58.802Z,14.70
2023-03-14T21:24:27.213Z,10.33
2023-03-14T21:26:55.541Z,9.33
2023-03-14T21:29:24.455Z,14.23
2023-03-14T21:31:54.496Z,16.43
2023-03-14T21:34:26.712Z,23.27
2023-03-14T21:36:55.852Z,11.47
2023-03-14T21:39:24.042Z,35.13
2023-03-14T21:41:52.260Z,24.63
2023-03-14T21:44:21.766Z,20.37
2023-03-14T21:46:50.823Z,10.23
2023-03-14T21:49:20.825Z,13.50
2023-03-14T21:51:49.082Z,16.17
2023-03-14T21:54:18.356Z,9.13
2023-03-14T21:56:46.820Z,13.23
2023-03-14T21:59:15.588Z,17.43
2023-03-14T22:01:43.975Z,17.17
2023-03-14T22:04:12.824Z,17.80
2023-03-14T22:06:42.438Z,9.90
2023-03-14T22:09:10.758Z,15.07
2023-03-14T22:11:39.163Z,13.80
2023-03-14T22:14:07.339Z,12.13
2023-03-14T22:16:35.665Z,9.13
2023-03-14T22:19:03.933Z,28.73
2023-03-14T22:21:32.217Z,21.37
2023-03-14T22:24:01.795Z,17.13
2023-03-14T22:26:29.991Z,18.07
2023-03-14T22:28:58.118Z,10.10
2023-03-14T22:31:26.393Z,19.63
2023-03-14T22:33:54.565Z,13.40
2023-03-14T22:36:22.714Z,17.17
2023-03-14T22:38:50.946Z,17.57
2023-03-14T22:41:20.462Z,18.67
2023-03-14T22:43:49.986Z,15.80
2023-03-14T22:46:18.224Z,15.07
2023-03-14T22:48:46.596Z,10.57
2023-03-14T22:51:15.785Z,13.87
2023-03-14T22:53:44.056Z,66.50
2023-03-14T22:56:13.076Z,162.90
2023-03-14T22:58:42.661Z,43.53
2023-03-14T23:01:11.002Z,24.03
2023-03-14T23:03:39.344Z,13.37
2023-03-14T23:06:08.246Z,15.30
2023-03-14T23:08:37.998Z,31.70
2023-03-14T23:11:07.658Z,30.40
2023-03-14T23:13:36.980Z,25.33
2023-03-14T23:16:08.207Z,25.80
2023-03-14T23:18:36.968Z,27.47
2023-03-14T23:21:10.019Z,21.20
2023-03-14T23:23:38.609Z,24.23
2023-03-14T23:26:08.496Z,22.27
2023-03-14T23:28:36.672Z,11.93
2023-03-14T23:31:06.957Z,18.53
2023-03-14T23:33:36.547Z,20.57
2023-03-14T23:36:06.307Z,11.40
2023-03-14T23:38:35.021Z,9.40
2023-03-14T23:41:03.482Z,15.40
2023-03-14T23:43:32.578Z,8.97
2023-03-14T23:46:02.071Z,13.53
2023-03-14T23:48:34.115Z,13.97
2023-03-14T23:51:05.124Z,15.30
2023-03-14T23:53:33.831Z,21.90
2023-03-14T23:56:02.561Z,16.67
2023-03-14T23:58:36.260Z,13.97
